EJU254Y LPPT-LOWW
Flight info
| Callsign | EJU254Y |
|---|---|
| Flight time | N/A |
| Altitude | 38000 |
| Route | ORVED DCT RODAP DCT RAKOD DCT UREDI DCT DIPOL DCT RBO DCT PINAR DCT SEGRE DCT BRITO DCT PISUS DCT PONEN DCT SEROX DCT VILAR/N0460F390 DCT KARES/N0460F380 DCT BISES DCT BCN DCT SALON DCT AGENA M985 LUMAS DCT UNANA DCT STP DCT RAPED DCT PIGOS DCT EKSID DCT NOSTA DCT EGHIN DCT DORAV DCT MISPO DCT OTKEK/N0457F390 DCT ARALD DCT ABTAN |
| Aircraft | A20N/M-SDE2E3FGHIRWXY/LB1 |
Departure
| Time | 2026-05-06 17:50 |
|---|---|
| Airport | Lisbon Humberto Delgado Airport (LPPT) |
Arrival
| Time | N/A |
|---|---|
| Airport | Vienna International Airport (LOWW) |
| Time | Latitude | Longitude | Altitude | Speed | Heading |
|---|---|---|---|---|---|
| 2026-05-06 17:25 | 38.77429 | -9.13141 | 347 ft | 0 kts | 78° |
| 2026-05-06 17:39 | 38.77427 | -9.13151 | 357 ft | 1 kts | 83° |
| 2026-05-06 17:39 | 38.77426 | -9.13162 | 357 ft | 1 kts | 88° |
| 2026-05-06 17:39 | 38.77426 | -9.13172 | 352 ft | 1 kts | 93° |
| 2026-05-06 17:40 | 38.77427 | -9.13183 | 357 ft | 1 kts | 98° |
| 2026-05-06 17:40 | 38.77428 | -9.13194 | 357 ft | 1 kts | 103° |
| 2026-05-06 17:40 | 38.77430 | -9.13204 | 355 ft | 1 kts | 109° |
| 2026-05-06 17:40 | 38.77433 | -9.13214 | 355 ft | 1 kts | 115° |
| 2026-05-06 17:41 | 38.77437 | -9.13224 | 356 ft | 1 kts | 121° |
| 2026-05-06 17:41 | 38.77444 | -9.13238 | 353 ft | 0 kts | 129° |
| 2026-05-06 17:44 | 38.77427 | -9.13225 | 354 ft | 10 kts | 152° |
| 2026-05-06 17:44 | 38.77347 | -9.13242 | 356 ft | 14 kts | 225° |
| 2026-05-06 17:44 | 38.77319 | -9.13361 | 352 ft | 15 kts | 254° |
| 2026-05-06 17:45 | 38.77291 | -9.13510 | 354 ft | 19 kts | 258° |
| 2026-05-06 17:45 | 38.77264 | -9.13679 | 349 ft | 20 kts | 255° |
| 2026-05-06 17:45 | 38.77221 | -9.13841 | 348 ft | 14 kts | 227° |
| 2026-05-06 17:45 | 38.77129 | -9.13894 | 351 ft | 17 kts | 201° |
| 2026-05-06 17:46 | 38.76993 | -9.13965 | 350 ft | 25 kts | 204° |
| 2026-05-06 17:46 | 38.76820 | -9.14061 | 352 ft | 29 kts | 202° |
| 2026-05-06 17:46 | 38.76692 | -9.14130 | 350 ft | 0 kts | 202° |
| 2026-05-06 17:46 | 38.76640 | -9.14158 | 354 ft | 14 kts | 202° |
| 2026-05-06 17:47 | 38.76598 | -9.14183 | 352 ft | 8 kts | 218° |
| 2026-05-06 17:47 | 38.76597 | -9.14255 | 346 ft | 0 kts | 289° |
| 2026-05-06 17:48 | 38.76606 | -9.14290 | 346 ft | 0 kts | 289° |
| 2026-05-06 17:48 | 38.76613 | -9.14312 | 341 ft | 12 kts | 292° |
| 2026-05-06 17:48 | 38.76689 | -9.14358 | 341 ft | 15 kts | 13° |
| 2026-05-06 17:49 | 38.76893 | -9.14257 | 343 ft | 60 kts | 20° |
| 2026-05-06 17:49 | 38.77480 | -9.13945 | 347 ft | 120 kts | 22° |
| 2026-05-06 17:49 | 38.78398 | -9.13454 | 402 ft | 162 kts | 19° |
| 2026-05-06 17:49 | 38.79459 | -9.12736 | 720 ft | 183 kts | 26° |
| 2026-05-06 17:50 | 38.80578 | -9.11920 | 1419 ft | 179 kts | 21° |
| 2026-05-06 17:50 | 38.81659 | -9.11219 | 2290 ft | 173 kts | 21° |
| 2026-05-06 17:50 | 38.82817 | -9.10509 | 2511 ft | 205 kts | 21° |
| 2026-05-06 17:50 | 38.84188 | -9.09554 | 2740 ft | 238 kts | 26° |
| 2026-05-06 17:51 | 38.85652 | -9.08472 | 3218 ft | 253 kts | 27° |
| 2026-05-06 17:51 | 38.87179 | -9.07336 | 4184 ft | 256 kts | 28° |
| 2026-05-06 17:51 | 38.88720 | -9.06122 | 5053 ft | 264 kts | 37° |
| 2026-05-06 17:51 | 38.89987 | -9.04391 | 5953 ft | 270 kts | 56° |
| 2026-05-06 17:52 | 38.90849 | -9.02236 | 6836 ft | 274 kts | 64° |
| 2026-05-06 17:52 | 38.91667 | -9.00002 | 7682 ft | 279 kts | 64° |
| 2026-05-06 17:52 | 38.92505 | -8.97738 | 8540 ft | 284 kts | 64° |
| 2026-05-06 17:52 | 38.93365 | -8.95426 | 9412 ft | 289 kts | 64° |
| 2026-05-06 17:53 | 38.94227 | -8.93113 | 10211 ft | 295 kts | 64° |
| 2026-05-06 17:53 | 38.95148 | -8.90644 | 10546 ft | 318 kts | 64° |
| 2026-05-06 17:53 | 38.96139 | -8.87988 | 10807 ft | 341 kts | 64° |
| 2026-05-06 17:53 | 38.97178 | -8.85199 | 11405 ft | 350 kts | 64° |
| 2026-05-06 17:54 | 38.98236 | -8.82357 | 12131 ft | 356 kts | 64° |
| 2026-05-06 17:54 | 38.99311 | -8.79463 | 12862 ft | 362 kts | 64° |
| 2026-05-06 17:54 | 39.00402 | -8.76521 | 13584 ft | 368 kts | 64° |
| 2026-05-06 17:54 | 39.01511 | -8.73531 | 14236 ft | 373 kts | 64° |
| 2026-05-06 17:55 | 39.02629 | -8.70511 | 14945 ft | 376 kts | 65° |
| 2026-05-06 17:55 | 39.03762 | -8.67453 | 15585 ft | 381 kts | 65° |
| 2026-05-06 17:55 | 39.04904 | -8.64363 | 16283 ft | 384 kts | 65° |
| 2026-05-06 17:55 | 39.05939 | -8.61562 | 16901 ft | 387 kts | 65° |
| 2026-05-06 17:56 | 39.07082 | -8.58464 | 17565 ft | 391 kts | 65° |
| 2026-05-06 17:56 | 39.08254 | -8.55286 | 18215 ft | 395 kts | 65° |
| 2026-05-06 17:56 | 39.09437 | -8.52073 | 18777 ft | 399 kts | 65° |
| 2026-05-06 17:56 | 39.10627 | -8.48840 | 19382 ft | 401 kts | 65° |
| 2026-05-06 17:57 | 39.11826 | -8.45574 | 19932 ft | 405 kts | 65° |
| 2026-05-06 17:57 | 39.13037 | -8.42274 | 20508 ft | 409 kts | 65° |
| 2026-05-06 17:57 | 39.14254 | -8.38953 | 21075 ft | 412 kts | 65° |
| 2026-05-06 17:57 | 39.15481 | -8.35599 | 21635 ft | 415 kts | 65° |
| 2026-05-06 17:58 | 39.16717 | -8.32221 | 22188 ft | 419 kts | 65° |
| 2026-05-06 17:58 | 39.17961 | -8.28816 | 22737 ft | 422 kts | 65° |
| 2026-05-06 17:58 | 39.19215 | -8.25380 | 23284 ft | 425 kts | 65° |
| 2026-05-06 17:58 | 39.20477 | -8.21918 | 23698 ft | 429 kts | 65° |
| 2026-05-06 17:59 | 39.21732 | -8.18471 | 24045 ft | 432 kts | 65° |
| 2026-05-06 17:59 | 39.23011 | -8.14956 | 24530 ft | 434 kts | 65° |
| 2026-05-06 17:59 | 39.24296 | -8.11418 | 24935 ft | 438 kts | 65° |
| 2026-05-06 17:59 | 39.25591 | -8.07850 | 25344 ft | 441 kts | 65° |
| 2026-05-06 18:00 | 39.26895 | -8.04253 | 25739 ft | 444 kts | 65° |
| 2026-05-06 18:00 | 39.28148 | -8.00594 | 26117 ft | 447 kts | 70° |
| 2026-05-06 18:00 | 39.29231 | -7.96816 | 26507 ft | 451 kts | 70° |
| 2026-05-06 18:00 | 39.30329 | -7.93013 | 26883 ft | 454 kts | 70° |
| 2026-05-06 18:01 | 39.31423 | -7.89236 | 27248 ft | 457 kts | 70° |
| 2026-05-06 18:01 | 39.32538 | -7.85381 | 27619 ft | 460 kts | 70° |
| 2026-05-06 18:01 | 39.33658 | -7.81500 | 27969 ft | 463 kts | 70° |
| 2026-05-06 18:01 | 39.34784 | -7.77589 | 28298 ft | 466 kts | 70° |
| 2026-05-06 18:02 | 39.35914 | -7.73659 | 28639 ft | 468 kts | 70° |
| 2026-05-06 18:02 | 39.37051 | -7.69697 | 28958 ft | 471 kts | 70° |
| 2026-05-06 18:02 | 39.38206 | -7.65719 | 29280 ft | 474 kts | 68° |
| 2026-05-06 18:02 | 39.39619 | -7.61856 | 29566 ft | 478 kts | 64° |
| 2026-05-06 18:03 | 39.41114 | -7.58006 | 29873 ft | 480 kts | 64° |
| 2026-05-06 18:03 | 39.42611 | -7.54132 | 30156 ft | 483 kts | 64° |
| 2026-05-06 18:03 | 39.44110 | -7.50240 | 30421 ft | 485 kts | 64° |
| 2026-05-06 18:03 | 39.45595 | -7.46377 | 30689 ft | 487 kts | 64° |
| 2026-05-06 18:04 | 39.47106 | -7.42439 | 30950 ft | 489 kts | 64° |
| 2026-05-06 18:04 | 39.48621 | -7.38488 | 31290 ft | 490 kts | 64° |
| 2026-05-06 18:04 | 39.50130 | -7.34545 | 31634 ft | 490 kts | 64° |
| 2026-05-06 18:04 | 39.51644 | -7.30585 | 31971 ft | 490 kts | 64° |
| 2026-05-06 18:05 | 39.53152 | -7.26634 | 32347 ft | 490 kts | 64° |
| 2026-05-06 18:05 | 39.53388 | -7.26015 | 32383 ft | 489 kts | 64° |
| 2026-05-06 18:06 | 39.54078 | -7.24207 | 32540 ft | 489 kts | 63° |
| 2026-05-06 18:06 | 39.55583 | -7.20254 | 32866 ft | 489 kts | 63° |
| 2026-05-06 18:06 | 39.57088 | -7.16298 | 33178 ft | 490 kts | 63° |
| 2026-05-06 18:07 | 39.58594 | -7.12337 | 33496 ft | 489 kts | 63° |
| 2026-05-06 18:07 | 39.60095 | -7.08381 | 33819 ft | 489 kts | 63° |
| 2026-05-06 18:07 | 39.61594 | -7.04425 | 34086 ft | 489 kts | 63° |
| 2026-05-06 18:07 | 39.63089 | -7.00474 | 34370 ft | 487 kts | 63° |
| 2026-05-06 18:08 | 39.64581 | -6.96526 | 34629 ft | 487 kts | 63° |
| 2026-05-06 18:08 | 39.66069 | -6.92585 | 34887 ft | 486 kts | 63° |
| 2026-05-06 18:08 | 39.67553 | -6.88651 | 35139 ft | 486 kts | 63° |
| 2026-05-06 18:08 | 39.69014 | -6.84769 | 35380 ft | 485 kts | 63° |
| 2026-05-06 18:09 | 39.70495 | -6.80831 | 35607 ft | 485 kts | 63° |
| 2026-05-06 18:09 | 39.71972 | -6.76899 | 35836 ft | 484 kts | 63° |
| 2026-05-06 18:09 | 39.73448 | -6.72965 | 36054 ft | 484 kts | 63° |
| 2026-05-06 18:09 | 39.74921 | -6.69033 | 36268 ft | 484 kts | 63° |
| 2026-05-06 18:10 | 39.76389 | -6.65108 | 36486 ft | 483 kts | 63° |
| 2026-05-06 18:10 | 39.77855 | -6.61184 | 36693 ft | 482 kts | 63° |
| 2026-05-06 18:10 | 39.79320 | -6.57257 | 36890 ft | 482 kts | 63° |
| 2026-05-06 18:10 | 39.80779 | -6.53340 | 37076 ft | 482 kts | 63° |
| 2026-05-06 18:11 | 39.82219 | -6.49473 | 37256 ft | 482 kts | 63° |
| 2026-05-06 18:11 | 39.83675 | -6.45553 | 37435 ft | 481 kts | 63° |
| 2026-05-06 18:11 | 39.85131 | -6.41632 | 37597 ft | 481 kts | 63° |
| 2026-05-06 18:11 | 39.86534 | -6.37677 | 37761 ft | 481 kts | 66° |
| 2026-05-06 18:12 | 39.89186 | -6.29675 | 37855 ft | 481 kts | 65° |
| 2026-05-06 18:12 | 39.91849 | -6.21714 | 37855 ft | 480 kts | 65° |
| 2026-05-06 18:13 | 39.94502 | -6.13732 | 37855 ft | 480 kts | 65° |
| 2026-05-06 18:13 | 39.97144 | -6.05745 | 37858 ft | 480 kts | 66° |
| 2026-05-06 18:14 | 39.99761 | -5.97812 | 37855 ft | 480 kts | 66° |
| 2026-05-06 18:14 | 40.02392 | -5.89813 | 37860 ft | 480 kts | 66° |
| 2026-05-06 18:15 | 40.05017 | -5.81809 | 37864 ft | 480 kts | 66° |
| 2026-05-06 18:15 | 40.07639 | -5.73789 | 37871 ft | 480 kts | 66° |
| 2026-05-06 18:16 | 40.10253 | -5.65776 | 37874 ft | 480 kts | 66° |
| 2026-05-06 18:16 | 40.12848 | -5.57795 | 37877 ft | 480 kts | 66° |
| 2026-05-06 18:17 | 40.15455 | -5.49756 | 37885 ft | 480 kts | 66° |
| 2026-05-06 18:17 | 40.18054 | -5.41718 | 37890 ft | 480 kts | 66° |
| 2026-05-06 18:18 | 40.20650 | -5.33665 | 37890 ft | 480 kts | 66° |
| 2026-05-06 18:18 | 40.23235 | -5.25624 | 37893 ft | 480 kts | 66° |
| 2026-05-06 18:19 | 40.25796 | -5.17632 | 37894 ft | 479 kts | 66° |
| 2026-05-06 18:19 | 40.28370 | -5.09578 | 37896 ft | 480 kts | 66° |
| 2026-05-06 18:20 | 40.30939 | -5.01516 | 37899 ft | 479 kts | 66° |
| 2026-05-06 18:20 | 40.33499 | -4.93459 | 37895 ft | 479 kts | 66° |
| 2026-05-06 18:21 | 40.36052 | -4.85396 | 37895 ft | 479 kts | 66° |
| 2026-05-06 18:21 | 40.38599 | -4.77333 | 37896 ft | 478 kts | 67° |
| 2026-05-06 18:22 | 40.41122 | -4.69322 | 37897 ft | 478 kts | 67° |
| 2026-05-06 18:22 | 40.43658 | -4.61244 | 37896 ft | 478 kts | 67° |
| 2026-05-06 18:23 | 40.46186 | -4.53160 | 37896 ft | 479 kts | 67° |
| 2026-05-06 18:23 | 40.48711 | -4.45067 | 37897 ft | 479 kts | 67° |
| 2026-05-06 18:24 | 40.51235 | -4.36956 | 37906 ft | 480 kts | 67° |
| 2026-05-06 18:24 | 40.53752 | -4.28839 | 37908 ft | 480 kts | 67° |
| 2026-05-06 18:25 | 40.56252 | -4.20757 | 37909 ft | 481 kts | 67° |
| 2026-05-06 18:25 | 40.58758 | -4.12627 | 37915 ft | 480 kts | 67° |
| 2026-05-06 18:26 | 40.61265 | -4.04472 | 37917 ft | 480 kts | 67° |
| 2026-05-06 18:26 | 40.63763 | -3.96319 | 37916 ft | 480 kts | 68° |
| 2026-05-06 18:27 | 40.66253 | -3.88168 | 37915 ft | 480 kts | 68° |
| 2026-05-06 18:27 | 40.68739 | -3.80008 | 37901 ft | 480 kts | 68° |
| 2026-05-06 18:28 | 40.71219 | -3.71840 | 37909 ft | 480 kts | 68° |
| 2026-05-06 18:28 | 40.73672 | -3.63734 | 37913 ft | 479 kts | 68° |
| 2026-05-06 18:29 | 40.76140 | -3.55556 | 37914 ft | 480 kts | 68° |
| 2026-05-06 18:29 | 40.78601 | -3.47377 | 37899 ft | 480 kts | 68° |
| 2026-05-06 18:30 | 40.81059 | -3.39179 | 37903 ft | 481 kts | 68° |
| 2026-05-06 18:30 | 40.83514 | -3.30968 | 37901 ft | 481 kts | 68° |
| 2026-05-06 18:31 | 40.85776 | -3.22718 | 37913 ft | 482 kts | 75° |
| 2026-05-06 18:31 | 40.87458 | -3.14146 | 37908 ft | 482 kts | 75° |
| 2026-05-06 18:32 | 40.89157 | -3.05572 | 37921 ft | 483 kts | 75° |
| 2026-05-06 18:32 | 40.90848 | -2.96978 | 37918 ft | 484 kts | 76° |
| 2026-05-06 18:33 | 40.92532 | -2.88362 | 37923 ft | 484 kts | 76° |
| 2026-05-06 18:33 | 40.94198 | -2.79794 | 37929 ft | 485 kts | 76° |
| 2026-05-06 18:34 | 40.95874 | -2.71133 | 37932 ft | 485 kts | 76° |
| 2026-05-06 18:34 | 40.97543 | -2.62479 | 37934 ft | 486 kts | 76° |
| 2026-05-06 18:35 | 40.99206 | -2.53816 | 37925 ft | 486 kts | 76° |
| 2026-05-06 18:35 | 41.00861 | -2.45154 | 37928 ft | 484 kts | 76° |
| 2026-05-06 18:36 | 41.02496 | -2.36561 | 37930 ft | 485 kts | 76° |
| 2026-05-06 18:36 | 41.04138 | -2.27888 | 37930 ft | 485 kts | 76° |
| 2026-05-06 18:37 | 41.05497 | -2.20680 | 37934 ft | 485 kts | 76° |
| 2026-05-06 18:37 | 41.07403 | -2.10529 | 37934 ft | 486 kts | 76° |
| 2026-05-06 18:38 | 41.09027 | -2.01840 | 37934 ft | 486 kts | 76° |
| 2026-05-06 18:38 | 41.10634 | -1.93196 | 37939 ft | 486 kts | 76° |
| 2026-05-06 18:39 | 41.12247 | -1.84483 | 37942 ft | 487 kts | 76° |
| 2026-05-06 18:40 | 41.14656 | -1.71396 | 37944 ft | 487 kts | 77° |
| 2026-05-06 18:40 | 41.16255 | -1.62659 | 37945 ft | 487 kts | 77° |
| 2026-05-06 18:41 | 41.17848 | -1.53917 | 37946 ft | 488 kts | 77° |
| 2026-05-06 18:41 | 41.19434 | -1.45167 | 37953 ft | 488 kts | 77° |
| 2026-05-06 18:42 | 41.21006 | -1.36462 | 37951 ft | 488 kts | 77° |
| 2026-05-06 18:42 | 41.22580 | -1.27697 | 37951 ft | 488 kts | 77° |
| 2026-05-06 18:43 | 41.24149 | -1.18920 | 37956 ft | 489 kts | 77° |
| 2026-05-06 18:43 | 41.25713 | -1.10133 | 37956 ft | 489 kts | 77° |
| 2026-05-06 18:44 | 41.27271 | -1.01333 | 37954 ft | 489 kts | 77° |
| 2026-05-06 18:44 | 41.28813 | -0.92585 | 37948 ft | 489 kts | 77° |
| 2026-05-06 18:45 | 41.30359 | -0.83774 | 37942 ft | 490 kts | 77° |
| 2026-05-06 18:45 | 41.31899 | -0.74952 | 37940 ft | 490 kts | 77° |
| 2026-05-06 18:46 | 41.33433 | -0.66118 | 37931 ft | 490 kts | 77° |
| 2026-05-06 18:46 | 41.34882 | -0.57255 | 37931 ft | 490 kts | 82° |
| 2026-05-06 18:47 | 41.35355 | -0.48302 | 37923 ft | 488 kts | 93° |
| 2026-05-06 18:47 | 41.35274 | -0.39253 | 37921 ft | 489 kts | 92° |
| 2026-05-06 18:48 | 41.35212 | -0.30202 | 37922 ft | 490 kts | 92° |
| 2026-05-06 18:48 | 41.35138 | -0.21130 | 37922 ft | 490 kts | 92° |
| 2026-05-06 18:49 | 41.35053 | -0.12054 | 37925 ft | 491 kts | 92° |
| 2026-05-06 18:49 | 41.34961 | -0.03027 | 37923 ft | 492 kts | 92° |
| 2026-05-06 18:50 | 41.34861 | 0.06083 | 37926 ft | 492 kts | 92° |
| 2026-05-06 18:50 | 41.34754 | 0.15191 | 38076 ft | 493 kts | 92° |
| 2026-05-06 18:50 | 41.34697 | 0.19762 | 38260 ft | 493 kts | 92° |
| 2026-05-06 18:51 | 41.34640 | 0.24323 | 38415 ft | 492 kts | 92° |
| 2026-05-06 18:51 | 41.34581 | 0.28812 | 38562 ft | 492 kts | 92° |
| 2026-05-06 18:51 | 41.34519 | 0.33363 | 38683 ft | 492 kts | 92° |
| 2026-05-06 18:52 | 41.34390 | 0.42466 | 38899 ft | 492 kts | 92° |
| 2026-05-06 18:52 | 41.34254 | 0.51563 | 38915 ft | 491 kts | 93° |
| 2026-05-06 18:53 | 41.34112 | 0.60642 | 38917 ft | 491 kts | 93° |
| 2026-05-06 18:53 | 41.33963 | 0.69664 | 38914 ft | 491 kts | 93° |
| 2026-05-06 18:54 | 41.33806 | 0.78739 | 38917 ft | 491 kts | 93° |
| 2026-05-06 18:54 | 41.33642 | 0.87823 | 38922 ft | 491 kts | 93° |
| 2026-05-06 18:55 | 41.33470 | 0.96898 | 38931 ft | 491 kts | 93° |
| 2026-05-06 18:55 | 41.33292 | 1.05983 | 38933 ft | 491 kts | 94° |
| 2026-05-06 18:56 | 41.33107 | 1.14998 | 38929 ft | 491 kts | 94° |
| 2026-05-06 18:56 | 41.32915 | 1.24063 | 38931 ft | 490 kts | 94° |
| 2026-05-06 18:57 | 41.32716 | 1.33132 | 38932 ft | 490 kts | 94° |
| 2026-05-06 18:57 | 41.32509 | 1.42202 | 38935 ft | 491 kts | 94° |
| 2026-05-06 18:58 | 41.32296 | 1.51217 | 38942 ft | 491 kts | 94° |
| 2026-05-06 18:58 | 41.32075 | 1.60298 | 38942 ft | 491 kts | 94° |
| 2026-05-06 18:59 | 41.31847 | 1.69386 | 38949 ft | 492 kts | 94° |
| 2026-05-06 18:59 | 41.31611 | 1.78487 | 38949 ft | 492 kts | 94° |
| 2026-05-06 19:00 | 41.31369 | 1.87531 | 38945 ft | 493 kts | 94° |
| 2026-05-06 19:00 | 41.31119 | 1.96644 | 38936 ft | 493 kts | 94° |
| 2026-05-06 19:01 | 41.30884 | 2.05773 | 38944 ft | 494 kts | 92° |
| 2026-05-06 19:01 | 41.31494 | 2.14893 | 38934 ft | 497 kts | 80° |
| 2026-05-06 19:02 | 41.33040 | 2.23791 | 38943 ft | 497 kts | 77° |
| 2026-05-06 19:02 | 41.34630 | 2.32758 | 38949 ft | 498 kts | 77° |
| 2026-05-06 19:03 | 41.36208 | 2.41728 | 38956 ft | 498 kts | 77° |
| 2026-05-06 19:03 | 41.37782 | 2.50706 | 38957 ft | 498 kts | 78° |
| 2026-05-06 19:04 | 41.39340 | 2.59638 | 38956 ft | 498 kts | 78° |
| 2026-05-06 19:04 | 41.40902 | 2.68631 | 38956 ft | 498 kts | 78° |
| 2026-05-06 19:05 | 41.42457 | 2.77635 | 38957 ft | 499 kts | 78° |
| 2026-05-06 19:05 | 41.44011 | 2.86674 | 38954 ft | 503 kts | 78° |
| 2026-05-06 19:06 | 41.45573 | 2.95806 | 38957 ft | 508 kts | 78° |
| 2026-05-06 19:06 | 41.47134 | 3.04979 | 38961 ft | 513 kts | 78° |
| 2026-05-06 19:07 | 41.48712 | 3.14305 | 38962 ft | 516 kts | 78° |
| 2026-05-06 19:07 | 41.50286 | 3.23644 | 38964 ft | 516 kts | 78° |
| 2026-05-06 19:08 | 41.51850 | 3.32984 | 38963 ft | 516 kts | 78° |
| 2026-05-06 19:08 | 41.53407 | 3.42332 | 38967 ft | 516 kts | 78° |
| 2026-05-06 19:09 | 41.54946 | 3.51619 | 38964 ft | 515 kts | 78° |
| 2026-05-06 19:09 | 41.56485 | 3.60960 | 38967 ft | 515 kts | 78° |
| 2026-05-06 19:10 | 41.58017 | 3.70303 | 38968 ft | 515 kts | 79° |